Time;durP1;ratioP1;P1;durP2;ratioP2;P2;SDS_P1;SDS_P2;PMS_P1;PMS_P2;Temp;Humidity;BMP_temperature;BMP_pressure;BME280_temperature;BME280_humidity;BME280_pressure;Samples;Min_cycle;Max_cycle;Signal;HPM_P1;HPM_P2
2022/03/17 00:01:01;;;;;;;32.15;16.65;;;;;;;;;;5071607;28;20465;-92
2022/03/17 00:03:27;;;;;;;28.85;16.20;;;;;;;;;;5072976;28;20074;-87
2022/03/17 00:05:52;;;;;;;28.35;16.25;;;;;;;;;;5072669;28;20025;-86
2022/03/17 00:08:17;;;;;;;34.05;16.38;;;;;;;;;;5072889;28;20016;-85
2022/03/17 00:10:43;;;;;;;34.42;16.90;;;;;;;;;;5071831;28;20388;-86
2022/03/17 00:13:08;;;;;;;28.65;15.60;;;;;;;;;;5087726;28;20032;-92
2022/03/17 00:15:33;;;;;;;28.17;16.85;;;;;;;;;;5091936;28;20015;-92
2022/03/17 00:17:59;;;;;;;31.42;17.02;;;;;;;;;;5091664;28;20035;-91
2022/03/17 00:20:24;;;;;;;33.30;17.75;;;;;;;;;;5091700;28;20018;-92
2022/03/17 00:22:50;;;;;;;31.08;17.20;;;;;;;;;;5092049;28;20191;-92
2022/03/17 00:25:15;;;;;;;31.42;15.98;;;;;;;;;;5091962;28;20024;-92
2022/03/17 00:27:40;;;;;;;32.85;17.70;;;;;;;;;;5091576;28;20107;-86
2022/03/17 00:30:06;;;;;;;33.92;18.98;;;;;;;;;;5091335;28;20088;-86
2022/03/17 00:32:31;;;;;;;35.78;18.55;;;;;;;;;;5091060;28;20128;-91
2022/03/17 00:37:40;;;;;;;36.17;19.15;;;;;;;;;;5096987;28;20116;-92
2022/03/17 00:40:06;;;;;;;34.28;18.75;;;;;;;;;;5095507;28;20452;-92
2022/03/17 00:42:31;;;;;;;36.63;18.75;;;;;;;;;;5095442;28;20099;-91
2022/03/17 00:44:56;;;;;;;37.58;19.35;;;;;;;;;;5096574;28;20077;-92
2022/03/17 00:47:22;;;;;;;39.63;19.17;;;;;;;;;;5096609;28;20020;-86
2022/03/17 00:49:47;;;;;;;38.17;19.55;;;;;;;;;;5095152;28;20036;-92
2022/03/17 00:52:12;;;;;;;33.72;17.75;;;;;;;;;;5094586;28;20036;-91
2022/03/17 00:54:42;;;;;;;35.03;18.95;;;;;;;;;;5094290;28;20024;-92
2022/03/17 00:57:07;;;;;;;35.80;19.33;;;;;;;;;;5091357;28;20024;-89
2022/03/17 00:59:33;;;;;;;32.53;18.98;;;;;;;;;;5074994;28;20024;-92
2022/03/17 01:01:59;;;;;;;31.88;18.60;;;;;;;;;;5075887;28;20024;-86
2022/03/17 01:04:24;;;;;;;34.95;19.92;;;;;;;;;;5089047;28;20031;-91
2022/03/17 01:06:49;;;;;;;37.45;21.70;;;;;;;;;;5095224;28;20012;-85
2022/03/17 01:09:14;;;;;;;38.70;20.90;;;;;;;;;;5095235;28;20035;-85
2022/03/17 01:11:39;;;;;;;35.08;19.75;;;;;;;;;;5094774;28;20111;-91
2022/03/17 01:14:05;;;;;;;37.42;19.85;;;;;;;;;;5094776;28;20016;-91
2022/03/17 01:16:30;;;;;;;36.15;20.15;;;;;;;;;;5096051;28;20410;-91
2022/03/17 01:18:55;;;;;;;35.92;18.73;;;;;;;;;;5094884;28;20058;-90
2022/03/17 01:21:20;;;;;;;32.47;16.92;;;;;;;;;;5095211;28;20031;-90
2022/03/17 01:23:46;;;;;;;33.05;19.15;;;;;;;;;;5094410;28;20501;-87
2022/03/17 01:26:11;;;;;;;28.98;16.80;;;;;;;;;;5095598;28;20020;-89
2022/03/17 01:28:36;;;;;;;27.77;16.73;;;;;;;;;;5095739;28;20020;-87
2022/03/17 01:31:01;;;;;;;27.08;14.55;;;;;;;;;;5094662;28;20020;-86
2022/03/17 01:33:27;;;;;;;27.75;15.77;;;;;;;;;;5095617;28;20024;-85
2022/03/17 01:35:52;;;;;;;25.98;14.00;;;;;;;;;;5095772;28;20016;-90
2022/03/17 01:38:17;;;;;;;24.63;13.70;;;;;;;;;;5094863;28;20114;-90
2022/03/17 01:40:42;;;;;;;26.55;13.82;;;;;;;;;;5094412;28;20057;-89
2022/03/17 01:43:08;;;;;;;23.27;12.20;;;;;;;;;;5094412;28;20464;-89
2022/03/17 01:45:33;;;;;;;25.92;13.15;;;;;;;;;;5095233;28;20095;-84
2022/03/17 01:47:58;;;;;;;23.15;12.45;;;;;;;;;;5093930;28;20027;-89
2022/03/17 01:50:24;;;;;;;26.13;13.73;;;;;;;;;;5094752;28;20024;-90
2022/03/17 01:52:49;;;;;;;21.13;13.80;;;;;;;;;;5093858;28;20063;-91
2022/03/17 01:55:17;;;;;;;25.33;14.18;;;;;;;;;;5095089;28;20038;-89
2022/03/17 01:57:42;;;;;;;22.35;12.52;;;;;;;;;;5095206;28;20023;-91
2022/03/17 02:00:10;;;;;;;24.90;13.95;;;;;;;;;;5094814;28;20024;-90
2022/03/17 02:02:35;;;;;;;25.25;13.40;;;;;;;;;;5094995;28;20495;-90
2022/03/17 02:05:03;;;;;;;24.10;13.70;;;;;;;;;;5093597;28;20016;-87
2022/03/17 02:07:28;;;;;;;23.08;14.00;;;;;;;;;;5094554;28;20027;-85
2022/03/17 02:09:54;;;;;;;24.65;14.40;;;;;;;;;;5094359;28;20388;-90
2022/03/17 02:15:04;;;;;;;24.30;14.63;;;;;;;;;;5095026;28;20069;-90
2022/03/17 02:17:31;;;;;;;26.15;16.35;;;;;;;;;;5093847;28;20019;-89
2022/03/17 02:20:00;;;;;;;26.20;17.15;;;;;;;;;;5093639;28;20017;-86
2022/03/17 02:22:26;;;;;;;27.83;15.93;;;;;;;;;;5094771;28;20036;-91
2022/03/17 02:27:41;;;;;;;28.00;14.82;;;;;;;;;;5094848;28;20026;-90
2022/03/17 02:30:08;;;;;;;24.95;14.90;;;;;;;;;;5093463;28;20050;-85
2022/03/17 02:32:34;;;;;;;24.23;14.60;;;;;;;;;;5093704;28;20036;-91
2022/03/17 02:35:06;;;;;;;28.77;18.40;;;;;;;;;;5093537;28;20020;-90
2022/03/17 02:37:32;;;;;;;26.27;15.43;;;;;;;;;;5093115;28;20111;-90
2022/03/17 02:39:58;;;;;;;27.85;18.10;;;;;;;;;;5093117;28;20543;-89
2022/03/17 02:42:24;;;;;;;29.95;20.05;;;;;;;;;;5093177;28;20020;-90
2022/03/17 02:44:50;;;;;;;32.60;21.17;;;;;;;;;;5093005;28;20035;-90
2022/03/17 02:47:15;;;;;;;33.97;19.23;;;;;;;;;;5092836;28;20118;-89
2022/03/17 02:49:41;;;;;;;32.83;20.48;;;;;;;;;;5092967;28;20019;-90
2022/03/17 02:52:07;;;;;;;34.67;23.40;;;;;;;;;;5092949;28;20379;-88
2022/03/17 02:54:32;;;;;;;38.95;22.48;;;;;;;;;;5092616;28;20051;-86
2022/03/17 02:56:58;;;;;;;36.90;20.42;;;;;;;;;;5092341;28;20053;-87
2022/03/17 02:59:23;;;;;;;40.28;19.55;;;;;;;;;;5092877;28;20020;-85
2022/03/17 03:01:48;;;;;;;40.42;19.52;;;;;;;;;;5093071;28;20048;-89
2022/03/17 03:04:16;;;;;;;36.05;20.15;;;;;;;;;;5092706;28;20361;-89
2022/03/17 03:06:41;;;;;;;39.17;20.80;;;;;;;;;;5092761;28;20034;-90
2022/03/17 03:09:06;;;;;;;35.75;20.25;;;;;;;;;;5093844;28;20115;-91
2022/03/17 03:11:31;;;;;;;39.83;22.45;;;;;;;;;;5093224;28;20084;-88
2022/03/17 03:13:57;;;;;;;36.13;18.52;;;;;;;;;;5092644;28;20026;-86
2022/03/17 03:16:22;;;;;;;32.80;18.05;;;;;;;;;;5092657;28;20012;-90
2022/03/17 03:18:47;;;;;;;34.42;19.17;;;;;;;;;;5092513;28;20020;-85
2022/03/17 03:21:12;;;;;;;37.92;20.58;;;;;;;;;;5093494;28;20429;-90
2022/03/17 03:23:37;;;;;;;32.88;19.17;;;;;;;;;;5092278;28;20023;-89
2022/03/17 03:26:03;;;;;;;34.75;19.63;;;;;;;;;;5093339;28;20028;-88
2022/03/17 03:28:28;;;;;;;34.10;19.88;;;;;;;;;;5093305;28;20016;-90
2022/03/17 03:30:54;;;;;;;34.67;20.30;;;;;;;;;;5092470;28;20020;-90
2022/03/17 03:33:19;;;;;;;33.60;19.88;;;;;;;;;;5092305;28;20047;-89
2022/03/17 03:38:28;;;;;;;31.83;17.67;;;;;;;;;;5093714;28;20107;-89
2022/03/17 03:40:53;;;;;;;33.58;19.60;;;;;;;;;;5093527;28;20048;-87
2022/03/17 03:43:19;;;;;;;30.58;18.30;;;;;;;;;;5093303;28;20016;-90
2022/03/17 03:45:44;;;;;;;33.45;18.92;;;;;;;;;;5090811;28;20020;-84
2022/03/17 03:48:09;;;;;;;30.90;17.42;;;;;;;;;;5093181;28;20076;-90
2022/03/17 03:50:37;;;;;;;30.05;18.73;;;;;;;;;;5093148;28;20099;-90
2022/03/17 03:53:03;;;;;;;31.17;18.50;;;;;;;;;;5091962;28;20028;-84
2022/03/17 03:55:28;;;;;;;31.02;17.63;;;;;;;;;;5088665;28;20060;-90
2022/03/17 03:57:54;;;;;;;29.17;17.73;;;;;;;;;;5071835;28;20586;-90
2022/03/17 04:02:55;;;;;;;31.40;17.50;;;;;;;;;;5073304;28;20029;-90
2022/03/17 04:05:24;;;;;;;30.98;19.13;;;;;;;;;;5071818;28;20479;-90
2022/03/17 04:07:49;;;;;;;30.60;20.05;;;;;;;;;;5071719;28;20032;-91
2022/03/17 04:10:15;;;;;;;29.60;17.33;;;;;;;;;;5076103;28;20121;-91
2022/03/17 04:12:40;;;;;;;30.92;16.48;;;;;;;;;;5075834;28;20441;-91
2022/03/17 04:15:05;;;;;;;32.17;19.60;;;;;;;;;;5077162;28;20043;-91
2022/03/17 04:17:31;;;;;;;30.92;17.83;;;;;;;;;;5075864;28;20012;-85
2022/03/17 04:19:56;;;;;;;28.85;17.95;;;;;;;;;;5075742;28;20020;-90
2022/03/17 04:22:21;;;;;;;30.63;18.77;;;;;;;;;;5076810;28;20048;-85
2022/03/17 04:24:46;;;;;;;28.67;18.08;;;;;;;;;;5075590;28;20013;-86
2022/03/17 04:27:12;;;;;;;28.90;16.77;;;;;;;;;;5076627;28;20043;-88
2022/03/17 04:29:37;;;;;;;30.13;18.63;;;;;;;;;;5075457;28;20016;-92
2022/03/17 04:32:02;;;;;;;32.60;19.08;;;;;;;;;;5075012;28;20131;-90
2022/03/17 04:34:28;;;;;;;30.17;18.20;;;;;;;;;;5075530;28;20468;-90
2022/03/17 04:36:53;;;;;;;29.40;18.05;;;;;;;;;;5075638;28;20020;-92
2022/03/17 04:39:18;;;;;;;28.50;16.42;;;;;;;;;;5075693;28;20021;-89
2022/03/17 04:41:43;;;;;;;31.05;17.85;;;;;;;;;;5075574;28;20099;-86
2022/03/17 04:44:09;;;;;;;29.67;19.13;;;;;;;;;;5075431;28;20460;-85
2022/03/17 04:46:35;;;;;;;29.27;17.60;;;;;;;;;;5075346;28;20021;-91
2022/03/17 04:49:00;;;;;;;28.90;16.58;;;;;;;;;;5075365;28;20468;-91
2022/03/17 04:51:25;;;;;;;29.92;18.33;;;;;;;;;;5076161;28;20059;-85
2022/03/17 04:53:51;;;;;;;29.10;17.98;;;;;;;;;;5074552;28;20033;-92
2022/03/17 04:56:19;;;;;;;31.77;17.55;;;;;;;;;;5074814;28;20053;-92
2022/03/17 04:58:45;;;;;;;28.25;16.23;;;;;;;;;;5075754;28;20416;-91
2022/03/17 05:01:12;;;;;;;26.90;15.82;;;;;;;;;;5075121;28;20081;-91
2022/03/17 05:03:37;;;;;;;27.13;15.98;;;;;;;;;;5075267;28;20093;-85
2022/03/17 05:06:03;;;;;;;29.95;17.25;;;;;;;;;;5074531;28;20062;-91
2022/03/17 05:08:28;;;;;;;27.67;16.38;;;;;;;;;;5074606;28;20017;-85
2022/03/17 05:10:54;;;;;;;28.77;17.63;;;;;;;;;;5074152;28;20021;-85
2022/03/17 05:13:20;;;;;;;29.50;16.80;;;;;;;;;;5074265;28;20040;-84
2022/03/17 05:15:47;;;;;;;30.27;17.20;;;;;;;;;;5075071;28;20475;-91
2022/03/17 05:18:13;;;;;;;30.10;17.42;;;;;;;;;;5074501;28;20119;-91
2022/03/17 05:20:40;;;;;;;30.98;18.67;;;;;;;;;;5073440;28;20110;-85
2022/03/17 05:23:08;;;;;;;30.40;16.80;;;;;;;;;;5076128;28;20514;-91
2022/03/17 05:25:34;;;;;;;30.05;17.88;;;;;;;;;;5074249;28;20028;-90
2022/03/17 05:28:02;;;;;;;30.88;18.45;;;;;;;;;;5074196;28;20033;-90
2022/03/17 05:30:28;;;;;;;30.70;17.95;;;;;;;;;;5082525;28;20028;-84
2022/03/17 05:32:53;;;;;;;30.98;20.70;;;;;;;;;;5093562;28;20042;-92
2022/03/17 05:35:18;;;;;;;31.67;17.90;;;;;;;;;;5095074;28;20020;-89
2022/03/17 05:37:44;;;;;;;30.42;16.20;;;;;;;;;;5093914;28;20119;-85
2022/03/17 05:40:15;;;;;;;29.55;15.93;;;;;;;;;;5090364;28;20047;-89
2022/03/17 05:42:40;;;;;;;26.48;14.75;;;;;;;;;;5074072;28;20081;-90
2022/03/17 05:45:06;;;;;;;28.17;15.80;;;;;;;;;;5085560;28;20036;-91
2022/03/17 05:47:38;;;;;;;26.52;15.35;;;;;;;;;;5092193;28;20059;-92
2022/03/17 05:50:04;;;;;;;23.02;13.13;;;;;;;;;;5093024;28;20020;-92
2022/03/17 05:52:30;;;;;;;21.25;9.93;;;;;;;;;;5093944;28;20036;-91
2022/03/17 05:54:55;;;;;;;22.90;11.85;;;;;;;;;;5094005;28;20024;-90
2022/03/17 05:57:21;;;;;;;21.27;11.02;;;;;;;;;;5094160;28;20032;-91
2022/03/17 05:59:46;;;;;;;19.13;9.82;;;;;;;;;;5095239;28;20027;-89
2022/03/17 06:02:11;;;;;;;16.58;7.65;;;;;;;;;;5095082;28;20070;-89
2022/03/17 06:04:38;;;;;;;15.27;7.57;;;;;;;;;;5093713;28;20040;-91
2022/03/17 06:07:04;;;;;;;17.75;8.73;;;;;;;;;;5094708;28;20027;-91
2022/03/17 06:09:29;;;;;;;16.15;8.25;;;;;;;;;;5087243;28;20008;-91
2022/03/17 06:11:55;;;;;;;16.48;8.05;;;;;;;;;;5089277;28;20063;-90
2022/03/17 06:14:20;;;;;;;16.98;8.40;;;;;;;;;;5088118;28;20028;-88
2022/03/17 06:16:45;;;;;;;16.35;8.13;;;;;;;;;;5090770;28;20063;-91
2022/03/17 06:19:11;;;;;;;19.98;10.20;;;;;;;;;;5091529;28;20479;-91
2022/03/17 06:21:36;;;;;;;20.73;8.88;;;;;;;;;;5091365;28;20197;-91
2022/03/17 06:24:01;;;;;;;16.52;8.07;;;;;;;;;;5091613;28;20376;-91
2022/03/17 06:26:26;;;;;;;17.00;7.88;;;;;;;;;;5091202;28;20055;-91
2022/03/17 06:28:51;;;;;;;19.02;9.77;;;;;;;;;;5090887;28;20460;-91
2022/03/17 06:31:17;;;;;;;18.40;8.18;;;;;;;;;;5090926;28;20130;-88
2022/03/17 06:33:44;;;;;;;19.02;9.73;;;;;;;;;;5091255;28;20460;-86
2022/03/17 06:36:09;;;;;;;16.90;8.00;;;;;;;;;;5091922;28;20074;-91
2022/03/17 06:38:35;;;;;;;18.67;8.27;;;;;;;;;;5091914;28;20535;-91
2022/03/17 06:41:00;;;;;;;17.20;8.80;;;;;;;;;;5088660;28;20434;-91
2022/03/17 06:43:25;;;;;;;20.90;8.48;;;;;;;;;;5071336;28;20107;-91
2022/03/17 06:45:50;;;;;;;19.52;8.73;;;;;;;;;;5072380;28;20029;-92
2022/03/17 06:48:15;;;;;;;17.17;8.25;;;;;;;;;;5070918;28;20036;-91
2022/03/17 06:50:41;;;;;;;16.60;7.85;;;;;;;;;;5085270;28;20358;-91
2022/03/17 06:53:06;;;;;;;19.95;8.80;;;;;;;;;;5070567;28;20036;-85
2022/03/17 06:55:33;;;;;;;18.35;8.02;;;;;;;;;;5071053;28;20020;-92
2022/03/17 06:57:58;;;;;;;17.90;8.70;;;;;;;;;;5071470;28;20506;-86
2022/03/17 07:00:23;;;;;;;21.10;8.27;;;;;;;;;;5085461;28;20020;-92
2022/03/17 07:02:49;;;;;;;16.42;8.80;;;;;;;;;;5090754;28;20026;-91
2022/03/17 07:05:14;;;;;;;18.58;8.80;;;;;;;;;;5087414;28;20103;-87
2022/03/17 07:07:40;;;;;;;17.90;8.50;;;;;;;;;;5083643;28;20072;-92
2022/03/17 07:10:06;;;;;;;21.63;9.60;;;;;;;;;;5084763;28;20039;-92
2022/03/17 07:12:31;;;;;;;20.60;9.63;;;;;;;;;;5089313;28;20115;-91
2022/03/17 07:14:57;;;;;;;20.98;8.32;;;;;;;;;;5091654;28;20043;-92
2022/03/17 07:17:22;;;;;;;16.48;7.38;;;;;;;;;;5091199;28;20009;-92
2022/03/17 07:22:25;;;;;;;25.13;11.00;;;;;;;;;;5072427;28;20032;-91
2022/03/17 07:24:50;;;;;;;31.38;18.08;;;;;;;;;;5070310;28;20020;-88
2022/03/17 07:27:15;;;;;;;18.45;8.63;;;;;;;;;;5070622;28;20028;-92
2022/03/17 07:29:40;;;;;;;20.17;8.77;;;;;;;;;;5080599;28;20027;-92
2022/03/17 07:32:06;;;;;;;20.15;9.90;;;;;;;;;;5090452;28;20140;-92
2022/03/17 07:34:31;;;;;;;20.25;9.02;;;;;;;;;;5091600;28;20016;-92
2022/03/17 07:36:56;;;;;;;19.52;9.13;;;;;;;;;;5091404;28;20107;-92
2022/03/17 07:39:21;;;;;;;18.48;8.38;;;;;;;;;;5087205;28;20039;-90
2022/03/17 07:41:47;;;;;;;15.88;7.38;;;;;;;;;;5071658;28;20380;-91
2022/03/17 07:44:13;;;;;;;15.60;7.68;;;;;;;;;;5070239;28;20017;-92
2022/03/17 07:46:39;;;;;;;13.77;7.55;;;;;;;;;;5070509;28;20069;-92
2022/03/17 07:49:04;;;;;;;15.75;6.45;;;;;;;;;;5075436;28;20028;-92
2022/03/17 07:51:30;;;;;;;15.15;7.38;;;;;;;;;;5090982;28;20020;-85
2022/03/17 07:53:56;;;;;;;15.10;6.90;;;;;;;;;;5090807;28;20117;-92
2022/03/17 07:56:21;;;;;;;15.43;6.53;;;;;;;;;;5090823;28;20453;-91
2022/03/17 07:58:47;;;;;;;13.35;6.60;;;;;;;;;;5090216;28;20115;-91
2022/03/17 08:01:12;;;;;;;12.70;5.72;;;;;;;;;;5087105;28;20465;-93
2022/03/17 08:03:41;;;;;;;15.38;6.40;;;;;;;;;;5097114;28;20067;-88
2022/03/17 08:06:06;;;;;;;15.98;6.15;;;;;;;;;;5077145;28;20024;-93
2022/03/17 08:08:32;;;;;;;13.98;6.60;;;;;;;;;;5087105;28;20496;-92
2022/03/17 08:10:57;;;;;;;14.50;7.32;;;;;;;;;;5090015;28;20115;-92
2022/03/17 08:13:25;;;;;;;12.68;6.00;;;;;;;;;;5090899;28;20122;-93
2022/03/17 08:15:50;;;;;;;11.77;5.38;;;;;;;;;;5090510;28;20023;-94
2022/03/17 08:18:15;;;;;;;13.77;6.53;;;;;;;;;;5091429;28;20106;-92
2022/03/17 08:20:41;;;;;;;15.05;6.75;;;;;;;;;;5089992;28;20132;-92
2022/03/17 08:23:07;;;;;;;13.90;5.65;;;;;;;;;;5090741;28;20069;-92
2022/03/17 08:25:32;;;;;;;11.55;6.43;;;;;;;;;;5087897;28;20024;-92
2022/03/17 08:27:58;;;;;;;14.07;6.10;;;;;;;;;;5101474;28;20468;-88
2022/03/17 08:30:23;;;;;;;12.35;6.00;;;;;;;;;;5084483;28;20478;-92
2022/03/17 08:32:48;;;;;;;12.68;6.40;;;;;;;;;;5090227;28;20564;-92
2022/03/17 08:35:14;;;;;;;13.35;5.72;;;;;;;;;;5089870;28;20051;-86
2022/03/17 08:37:43;;;;;;;17.38;6.72;;;;;;;;;;5089371;28;20028;-93
2022/03/17 08:40:09;;;;;;;13.82;6.20;;;;;;;;;;5087016;28;20035;-92
2022/03/17 08:42:34;;;;;;;15.63;6.40;;;;;;;;;;5069744;28;20021;-92
2022/03/17 08:44:59;;;;;;;12.68;6.22;;;;;;;;;;5070127;28;20464;-92
2022/03/17 08:50:08;;;;;;;14.77;6.75;;;;;;;;;;5083825;28;20077;-90
2022/03/17 08:52:34;;;;;;;15.13;7.20;;;;;;;;;;5089181;28;20028;-91
2022/03/17 08:54:59;;;;;;;14.80;6.55;;;;;;;;;;5090144;28;20022;-92
2022/03/17 08:57:24;;;;;;;13.93;6.13;;;;;;;;;;5090645;28;20415;-91
2022/03/17 08:59:50;;;;;;;11.93;6.53;;;;;;;;;;5089219;28;20031;-86
2022/03/17 09:02:15;;;;;;;13.07;6.57;;;;;;;;;;5073153;28;20456;-92
2022/03/17 09:04:40;;;;;;;14.95;7.18;;;;;;;;;;5073249;28;20013;-91
2022/03/17 09:07:05;;;;;;;16.88;6.93;;;;;;;;;;5080137;28;20024;-91
2022/03/17 09:09:32;;;;;;;16.80;6.97;;;;;;;;;;5093426;28;20072;-92
2022/03/17 09:11:58;;;;;;;16.48;7.32;;;;;;;;;;5093234;28;20514;-93
2022/03/17 09:14:23;;;;;;;15.75;8.13;;;;;;;;;;5093301;28;20047;-92
2022/03/17 09:16:49;;;;;;;18.63;9.65;;;;;;;;;;5093289;28;20045;-92
2022/03/17 09:19:14;;;;;;;12.00;6.10;;;;;;;;;;5090219;28;20101;-91
2022/03/17 09:21:40;;;;;;;11.88;5.47;;;;;;;;;;5073360;28;20028;-90
2022/03/17 09:24:05;;;;;;;14.23;7.45;;;;;;;;;;5087204;28;20016;-91
2022/03/17 09:26:31;;;;;;;11.25;5.72;;;;;;;;;;5093527;28;20476;-92
2022/03/17 09:28:56;;;;;;;11.32;5.03;;;;;;;;;;5092632;28;20598;-86
2022/03/17 09:31:22;;;;;;;11.68;5.50;;;;;;;;;;5093077;28;20472;-91
2022/03/17 09:33:47;;;;;;;12.98;5.25;;;;;;;;;;5094225;28;20337;-91
2022/03/17 09:36:13;;;;;;;9.85;4.78;;;;;;;;;;5092611;28;20641;-91
2022/03/17 09:38:38;;;;;;;7.80;3.67;;;;;;;;;;5092661;28;20054;-92
2022/03/17 09:41:23;;;;;;;12.07;4.13;;;;;;;;;;5089633;28;20021;-85
2022/03/17 09:43:48;;;;;;;9.60;4.20;;;;;;;;;;5074149;28;20037;-86
2022/03/17 09:46:15;;;;;;;8.40;4.55;;;;;;;;;;5072268;28;20031;-86
2022/03/17 09:48:40;;;;;;;10.20;4.60;;;;;;;;;;5071894;28;20465;-87
2022/03/17 09:51:06;;;;;;;13.80;4.13;;;;;;;;;;5089133;28;20021;-93
2022/03/17 09:53:31;;;;;;;9.40;4.00;;;;;;;;;;5071229;28;20052;-92
2022/03/17 09:55:56;;;;;;;11.52;4.85;;;;;;;;;;5072329;28;20486;-93
2022/03/17 09:58:21;;;;;;;9.68;4.20;;;;;;;;;;5072803;28;20115;-92
2022/03/17 10:00:52;;;;;;;12.27;5.85;;;;;;;;;;5072075;28;20024;-92
2022/03/17 10:03:28;;;;;;;13.23;5.13;;;;;;;;;;5072480;28;20361;-90
2022/03/17 10:05:54;;;;;;;13.18;6.72;;;;;;;;;;5072109;28;20074;-87
2022/03/17 10:08:20;;;;;;;13.27;7.63;;;;;;;;;;5075396;28;20023;-92
2022/03/17 10:10:46;;;;;;;12.27;6.13;;;;;;;;;;5091724;28;20023;-91
2022/03/17 10:13:14;;;;;;;15.13;5.75;;;;;;;;;;5091756;28;20024;-86
2022/03/17 10:15:40;;;;;;;17.65;8.45;;;;;;;;;;5091853;28;20483;-91
2022/03/17 10:18:18;;;;;;;9.05;4.57;;;;;;;;;;5088468;28;20099;-92
2022/03/17 10:20:43;;;;;;;8.65;4.38;;;;;;;;;;5089190;28;20028;-93
2022/03/17 10:23:08;;;;;;;14.45;6.93;;;;;;;;;;5091480;28;20391;-89
2022/03/17 10:25:34;;;;;;;14.90;7.18;;;;;;;;;;5092691;28;20078;-92
2022/03/17 10:28:01;;;;;;;13.45;5.20;;;;;;;;;;5091214;28;20070;-92
2022/03/17 10:30:33;;;;;;;14.63;6.50;;;;;;;;;;5088214;28;20031;-92
2022/03/17 10:33:03;;;;;;;9.18;4.45;;;;;;;;;;5075449;28;20039;-92
2022/03/17 10:35:35;;;;;;;7.93;4.32;;;;;;;;;;5091483;28;20099;-90
2022/03/17 10:38:10;;;;;;;9.85;5.20;;;;;;;;;;5090808;28;20024;-88
2022/03/17 10:40:36;;;;;;;8.88;4.60;;;;;;;;;;5091278;28;20020;-89
2022/03/17 10:43:17;;;;;;;12.82;5.97;;;;;;;;;;5091519;28;20020;-92
2022/03/17 10:45:42;;;;;;;;;;;;;;;;;;5088712;28;20021;-86
2022/03/17 10:48:08;;;;;;;10.92;4.36;;;;;;;;;;5070406;28;19909;-87
2022/03/17 10:50:42;;;;;;;11.65;4.45;;;;;;;;;;5086240;28;20102;-92
2022/03/17 10:53:07;;;;;;;8.18;4.25;;;;;;;;;;5090289;28;20503;-93
2022/03/17 10:55:34;;;;;;;9.45;4.72;;;;;;;;;;5088032;28;20048;-92
2022/03/17 10:58:19;;;;;;;15.00;6.13;;;;;;;;;;5090212;28;20103;-93
2022/03/17 11:00:47;;;;;;;17.80;8.52;;;;;;;;;;5086411;28;20129;-93
2022/03/17 11:03:13;;;;;;;21.77;8.57;;;;;;;;;;5085262;28;20047;-89
2022/03/17 11:05:38;;;;;;;16.77;7.60;;;;;;;;;;5092257;28;20108;-89
2022/03/17 11:08:05;;;;;;;15.10;6.45;;;;;;;;;;5092246;28;20016;-90
2022/03/17 11:10:30;;;;;;;12.00;5.82;;;;;;;;;;5093405;28;20047;-92
2022/03/17 11:12:56;;;;;;;8.20;5.05;;;;;;;;;;5088563;28;20039;-91
2022/03/17 11:15:25;;;;;;;10.43;5.20;;;;;;;;;;5072023;28;20460;-93
2022/03/17 11:17:50;;;;;;;9.70;4.93;;;;;;;;;;5070094;28;20020;-87
2022/03/17 11:20:22;;;;;;;9.35;5.05;;;;;;;;;;5083627;28;20050;-87
2022/03/17 11:23:09;;;;;;;10.43;5.05;;;;;;;;;;5089878;28;20023;-87
2022/03/17 11:25:34;;;;;;;9.93;4.68;;;;;;;;;;5081565;28;20107;-87
2022/03/17 11:28:01;;;;;;;10.82;5.13;;;;;;;;;;5070262;28;20063;-87
2022/03/17 11:30:31;;;;;;;12.95;4.97;;;;;;;;;;5085406;28;20044;-87
2022/03/17 11:32:58;;;;;;;12.27;4.60;;;;;;;;;;5091378;28;20032;-87
2022/03/17 11:35:26;;;;;;;7.13;4.45;;;;;;;;;;5090846;28;20027;-87
2022/03/17 11:38:12;;;;;;;9.48;4.80;;;;;;;;;;5089637;28;20638;-87
2022/03/17 11:40:58;;;;;;;9.65;5.30;;;;;;;;;;5090058;28;20013;-87
2022/03/17 11:43:23;;;;;;;8.05;4.93;;;;;;;;;;5090613;28;20016;-87
2022/03/17 11:45:48;;;;;;;9.75;4.05;;;;;;;;;;5088855;28;20032;-87
2022/03/17 11:48:13;;;;;;;8.60;4.88;;;;;;;;;;5083406;28;20027;-87
2022/03/17 11:50:41;;;;;;;7.18;4.32;;;;;;;;;;5079071;28;20452;-87
2022/03/17 11:53:12;;;;;;;9.27;4.82;;;;;;;;;;5069457;28;20039;-88
2022/03/17 11:55:48;;;;;;;9.50;4.93;;;;;;;;;;5101645;28;20027;-87
2022/03/17 11:58:34;;;;;;;6.65;4.18;;;;;;;;;;5090722;28;20016;-87
2022/03/17 12:00:59;;;;;;;9.63;4.82;;;;;;;;;;5090317;28;20073;-87
2022/03/17 12:03:27;;;;;;;8.73;4.65;;;;;;;;;;5091378;28;20024;-87
2022/03/17 12:06:09;;;;;;;9.52;5.13;;;;;;;;;;5091356;28;20020;-87
2022/03/17 12:08:35;;;;;;;9.00;4.80;;;;;;;;;;5092358;28;20020;-87
2022/03/17 12:11:05;;;;;;;9.43;5.00;;;;;;;;;;5092034;28;20464;-89
2022/03/17 12:13:32;;;;;;;9.35;4.28;;;;;;;;;;5081589;28;20379;-92
2022/03/17 12:15:57;;;;;;;9.63;4.82;;;;;;;;;;5089668;28;20027;-92
2022/03/17 12:18:23;;;;;;;10.75;5.65;;;;;;;;;;5090591;28;20024;-93
2022/03/17 12:20:51;;;;;;;7.85;5.32;;;;;;;;;;5090526;28;20430;-85
2022/03/17 12:23:34;;;;;;;10.85;5.35;;;;;;;;;;5086786;28;20060;-93
2022/03/17 12:26:04;;;;;;;8.55;5.07;;;;;;;;;;5070197;28;20063;-92
2022/03/17 12:28:32;;;;;;;9.70;4.95;;;;;;;;;;5069934;28;20021;-92
2022/03/17 12:30:57;;;;;;;24.60;11.07;;;;;;;;;;5073330;28;20020;-92
2022/03/17 12:33:24;;;;;;;36.30;17.25;;;;;;;;;;5079335;28;20460;-92
2022/03/17 12:36:02;;;;;;;14.40;5.63;;;;;;;;;;5094329;28;20027;-93
2022/03/17 12:38:28;;;;;;;23.85;10.38;;;;;;;;;;5081606;28;20038;-93
2022/03/17 12:40:53;;;;;;;12.27;6.28;;;;;;;;;;5093076;28;20034;-94
2022/03/17 12:43:19;;;;;;;14.60;6.75;;;;;;;;;;5089333;28;20086;-92
2022/03/17 12:45:47;;;;;;;16.42;7.53;;;;;;;;;;5085370;28;20094;-92
2022/03/17 12:48:12;;;;;;;11.65;6.00;;;;;;;;;;5094895;28;20490;-92
2022/03/17 12:50:38;;;;;;;12.20;5.75;;;;;;;;;;5093907;28;20032;-92
2022/03/17 12:53:03;;;;;;;16.38;7.07;;;;;;;;;;5094510;28;20817;-92
2022/03/17 12:55:29;;;;;;;13.40;6.97;;;;;;;;;;5077878;28;20036;-93
2022/03/17 12:57:57;;;;;;;12.07;6.50;;;;;;;;;;5073497;28;20016;-87
2022/03/17 13:00:25;;;;;;;12.25;5.40;;;;;;;;;;5073896;28;20051;-92
2022/03/17 13:02:55;;;;;;;13.43;6.28;;;;;;;;;;5074865;28;20062;-92
2022/03/17 13:08:05;;;;;;;10.98;5.32;;;;;;;;;;5093902;28;20096;-93
2022/03/17 13:15:59;;;;;;;10.95;4.93;;;;;;;;;;5093887;28;20047;-93
2022/03/17 13:18:24;;;;;;;12.52;6.78;;;;;;;;;;5092933;28;20028;-93
2022/03/17 13:20:58;;;;;;;11.75;5.82;;;;;;;;;;5091918;28;20461;-92
2022/03/17 13:23:33;;;;;;;10.38;6.18;;;;;;;;;;5093085;28;20439;-94
2022/03/17 13:25:59;;;;;;;12.65;5.82;;;;;;;;;;5093254;28;20024;-89
2022/03/17 13:28:24;;;;;;;10.02;5.82;;;;;;;;;;5093273;28;20026;-93
2022/03/17 13:30:52;;;;;;;11.18;5.22;;;;;;;;;;5091795;28;20020;-93
2022/03/17 13:33:24;;;;;;;11.80;5.82;;;;;;;;;;5092230;28;20020;-93
2022/03/17 13:35:49;;;;;;;17.65;6.43;;;;;;;;;;5092340;28;20468;-92
2022/03/17 13:38:19;;;;;;;17.55;6.80;;;;;;;;;;5083632;28;20065;-93
2022/03/17 13:40:48;;;;;;;17.58;7.30;;;;;;;;;;5091907;28;20066;-93
2022/03/17 13:43:17;;;;;;;13.50;6.28;;;;;;;;;;5090846;28;20122;-89
2022/03/17 13:45:44;;;;;;;15.35;6.65;;;;;;;;;;5081318;28;20123;-93
2022/03/17 13:48:10;;;;;;;23.65;7.00;;;;;;;;;;5092364;28;20035;-90
2022/03/17 13:50:39;;;;;;;11.77;5.93;;;;;;;;;;5093902;28;20024;-93
2022/03/17 13:53:08;;;;;;;10.77;5.88;;;;;;;;;;5092781;28;20093;-94
2022/03/17 13:55:37;;;;;;;13.63;6.80;;;;;;;;;;5092784;28;20012;-93
2022/03/17 13:58:10;;;;;;;10.93;6.03;;;;;;;;;;5091507;28;20020;-87
2022/03/17 14:00:35;;;;;;;12.98;5.88;;;;;;;;;;5093152;28;20023;-91
2022/03/17 14:03:10;;;;;;;11.82;6.28;;;;;;;;;;5091672;28;20028;-92
2022/03/17 14:05:35;;;;;;;11.98;5.85;;;;;;;;;;5087987;28;20476;-86
2022/03/17 14:08:01;;;;;;;10.05;5.72;;;;;;;;;;5071660;28;20027;-86
2022/03/17 14:10:26;;;;;;;11.85;5.82;;;;;;;;;;5072119;28;20035;-94
2022/03/17 14:13:01;;;;;;;14.07;6.00;;;;;;;;;;5072741;28;20035;-93
2022/03/17 14:15:26;;;;;;;12.25;6.00;;;;;;;;;;5092448;28;20027;-93
2022/03/17 14:17:51;;;;;;;9.90;5.70;;;;;;;;;;5092721;28;20020;-94
2022/03/17 14:20:17;;;;;;;8.23;4.78;;;;;;;;;;5092353;28;20553;-94
2022/03/17 14:25:26;;;;;;;11.82;5.20;;;;;;;;;;5093301;28;20134;-93
2022/03/17 14:27:51;;;;;;;11.30;4.85;;;;;;;;;;5091926;28;20091;-93
2022/03/17 14:30:16;;;;;;;11.43;5.63;;;;;;;;;;5091939;28;20030;-93
2022/03/17 14:32:41;;;;;;;8.50;4.85;;;;;;;;;;5088444;28;20035;-93
2022/03/17 14:35:07;;;;;;;12.65;6.28;;;;;;;;;;5071451;28;20016;-94
2022/03/17 14:37:32;;;;;;;10.55;5.05;;;;;;;;;;5087242;28;20019;-93
2022/03/17 14:39:57;;;;;;;14.05;5.53;;;;;;;;;;5072998;28;20219;-93
2022/03/17 14:42:23;;;;;;;10.73;5.13;;;;;;;;;;5091946;28;20029;-93
2022/03/17 14:44:48;;;;;;;13.73;5.78;;;;;;;;;;5074301;28;20017;-92
2022/03/17 14:47:13;;;;;;;9.00;4.43;;;;;;;;;;5070658;28;20046;-93
2022/03/17 14:49:38;;;;;;;8.57;5.25;;;;;;;;;;5083453;28;20479;-89
2022/03/17 14:52:06;;;;;;;9.75;4.85;;;;;;;;;;5090831;28;20035;-93